Time;durP1;ratioP1;P1;durP2;ratioP2;P2;SDS_P1;SDS_P2;PMS_P1;PMS_P2;Temp;Humidity;BMP_temperature;BMP_pressure;BME280_temperature;BME280_humidity;BME280_pressure;Samples;Min_cycle;Max_cycle;Signal;HPM_P1;HPM_P2
2022/09/15 00:00:08;;;;;;;48.30;27.83;;;;;;;17.48;78.77;94701.91;5112621;28;20173;-74
2022/09/15 00:02:33;;;;;;;25.98;11.52;;;;;;;17.35;78.70;94687.19;5094217;28;20607;-74
2022/09/15 00:04:59;;;;;;;28.58;11.25;;;;;;;17.47;78.75;94702.97;5111604;28;20265;-75
2022/09/15 00:07:25;;;;;;;19.10;8.65;;;;;;;17.49;78.35;94706.16;5099562;28;20730;-75
2022/09/15 00:09:50;;;;;;;24.30;11.55;;;;;;;17.46;78.63;94707.50;5105769;28;20179;-74
2022/09/15 00:12:16;;;;;;;20.75;7.18;;;;;;;17.42;78.60;94709.06;5109889;28;20659;-75
2022/09/15 00:14:41;;;;;;;19.75;9.15;;;;;;;17.25;79.08;94685.28;5099153;28;20253;-75
2022/09/15 00:17:06;;;;;;;18.77;9.45;;;;;;;17.34;79.13;94699.69;5091886;28;20166;-74
2022/09/15 00:19:32;;;;;;;22.58;8.52;;;;;;;17.26;79.06;94702.84;5101923;28;20172;-74
2022/09/15 00:21:57;;;;;;;21.48;9.25;;;;;;;17.27;79.47;94708.97;5097945;28;20972;-75
2022/09/15 00:24:23;;;;;;;21.27;8.88;;;;;;;17.26;79.59;94710.03;5090792;28;20173;-74
2022/09/15 00:26:48;;;;;;;26.55;10.52;;;;;;;17.24;79.85;94714.78;5111858;28;20165;-74
2022/09/15 00:29:13;;;;;;;22.67;8.93;;;;;;;17.26;79.63;94705.50;5111772;28;20691;-74
2022/09/15 00:31:39;;;;;;;21.90;8.85;;;;;;;17.23;79.41;94713.19;5093428;28;20189;-75
2022/09/15 00:34:05;;;;;;;21.90;9.73;;;;;;;17.18;79.70;94702.50;5093668;28;20596;-74
2022/09/15 00:36:31;;;;;;;19.63;8.43;;;;;;;17.15;79.58;94697.69;5111793;28;20674;-74
2022/09/15 00:38:58;;;;;;;25.17;10.55;;;;;;;17.13;79.64;94697.94;5111463;28;20173;-74
2022/09/15 00:41:24;;;;;;;24.02;9.68;;;;;;;16.82;80.64;94686.28;5111364;28;20179;-74
2022/09/15 00:44:03;;;;;;;25.10;10.20;;;;;;;16.86;81.33;94705.19;5111242;28;20169;-75
2022/09/15 00:46:34;;;;;;;31.70;10.80;;;;;;;16.83;80.95;94681.75;5111630;28;20279;-75
2022/09/15 00:49:27;;;;;;;29.15;10.07;;;;;;;16.77;81.25;94702.19;5111052;28;20260;-74
2022/09/15 00:52:10;;;;;;;29.80;12.95;;;;;;;16.76;81.16;94708.56;5111084;28;20189;-74
2022/09/15 00:54:58;;;;;;;25.33;10.82;;;;;;;16.82;81.31;94707.53;5111198;28;20199;-74
2022/09/15 00:57:40;;;;;;;27.83;13.27;;;;;;;16.71;81.60;94705.03;5111142;28;20256;-74
2022/09/15 01:00:10;;;;;;;28.15;13.65;;;;;;;16.71;81.76;94708.50;5110977;28;20169;-74
2022/09/15 01:02:37;;;;;;;40.95;18.08;;;;;;;16.80;81.36;94693.69;5112681;28;20169;-74
2022/09/15 01:05:09;;;;;;;34.15;15.60;;;;;;;16.64;81.96;94691.16;5111435;28;20165;-74
2022/09/15 01:07:40;;;;;;;34.65;15.77;;;;;;;16.69;82.01;94701.84;5111120;28;20183;-74
2022/09/15 01:10:16;;;;;;;36.03;15.35;;;;;;;16.64;82.18;94688.50;5111062;28;20176;-74
2022/09/15 01:12:42;;;;;;;40.90;17.45;;;;;;;16.62;81.75;94687.94;5110983;28;20192;-75
2022/09/15 01:15:08;;;;;;;35.10;15.75;;;;;;;16.70;81.81;94698.13;5110944;28;20252;-74
2022/09/15 01:18:27;;;;;;;46.28;18.63;;;;;;;16.61;81.85;94684.47;5080428;28;20602;-74
2022/09/15 01:21:19;;;;;;;35.25;18.10;;;;;;;16.67;81.77;94693.31;5008778;28;20184;-74
2022/09/15 01:23:51;;;;;;;36.05;16.15;;;;;;;16.49;81.83;94666.03;5000550;28;20176;-74
2022/09/15 01:26:28;;;;;;;40.83;18.65;;;;;;;16.70;81.76;94696.25;5068225;28;20190;-74
2022/09/15 01:28:57;;;;;;;43.83;17.58;;;;;;;16.70;81.91;94698.13;5090644;28;20686;-75
2022/09/15 01:31:25;;;;;;;35.83;16.48;;;;;;;16.71;81.97;94705.84;5090361;28;20220;-75
2022/09/15 01:34:02;;;;;;;33.35;15.32;;;;;;;16.48;81.87;94672.41;5090503;28;20185;-74
2022/09/15 01:36:39;;;;;;;32.42;13.93;;;;;;;16.55;82.13;94694.25;5090510;28;20185;-74
2022/09/15 01:39:23;;;;;;;31.65;13.95;;;;;;;16.25;82.67;94664.75;5072494;28;20225;-74
2022/09/15 01:41:56;;;;;;;31.13;14.43;;;;;;;16.43;83.13;94700.78;5090367;28;20722;-74
2022/09/15 01:44:28;;;;;;;33.35;15.02;;;;;;;16.51;82.93;94689.69;5090336;28;20265;-74
2022/09/15 01:46:59;;;;;;;30.25;15.20;;;;;;;16.51;82.41;94687.03;5083411;28;20570;-74
2022/09/15 01:49:29;;;;;;;22.02;10.25;;;;;;;16.58;81.77;94688.44;5110680;28;20651;-74
2022/09/15 01:51:55;;;;;;;32.78;12.82;;;;;;;16.60;81.70;94688.97;5110724;28;20296;-74
2022/09/15 01:54:28;;;;;;;35.05;14.15;;;;;;;16.64;81.85;94688.50;5097565;28;20688;-74
2022/09/15 01:56:55;;;;;;;28.20;13.40;;;;;;;16.51;82.05;94679.06;5090462;28;20162;-74
2022/09/15 01:59:20;;;;;;;25.45;12.48;;;;;;;16.60;81.78;94685.53;5090243;28;20176;-74
2022/09/15 02:02:03;;;;;;;30.27;12.75;;;;;;;16.64;81.89;94677.88;5072236;28;20170;-75
2022/09/15 02:04:40;;;;;;;29.02;12.73;;;;;;;16.46;81.60;94647.91;5090103;28;20178;-75
2022/09/15 02:07:15;;;;;;;25.70;12.48;;;;;;;16.66;81.69;94681.88;5090522;28;20664;-75
2022/09/15 02:09:55;;;;;;;27.70;12.35;;;;;;;16.54;81.92;94678.53;5072277;28;20709;-75
2022/09/15 02:12:58;;;;;;;22.83;11.00;;;;;;;16.59;81.93;94683.94;5090119;28;20202;-75
2022/09/15 02:15:29;;;;;;;30.35;14.05;;;;;;;16.58;81.65;94691.09;5089989;28;20229;-75
2022/09/15 02:17:56;;;;;;;27.52;12.85;;;;;;;16.58;81.71;94691.09;5090245;28;20181;-76
2022/09/15 02:20:34;;;;;;;25.38;11.75;;;;;;;16.50;82.14;94678.25;5090275;28;20170;-75
2022/09/15 02:23:07;;;;;;;24.65;12.48;;;;;;;16.43;82.31;94682.19;5090133;28;20181;-75
2022/09/15 02:25:51;;;;;;;27.20;11.73;;;;;;;16.45;82.39;94677.41;5105999;28;20185;-75
2022/09/15 02:28:22;;;;;;;22.42;11.13;;;;;;;16.37;82.34;94675.19;5092190;28;20670;-75
2022/09/15 02:30:49;;;;;;;24.83;11.55;;;;;;;16.38;82.51;94669.63;5092100;28;20197;-76
2022/09/15 02:33:19;;;;;;;23.13;11.10;;;;;;;16.41;82.84;94674.47;5110725;28;20175;-76
2022/09/15 02:35:45;;;;;;;24.30;10.18;;;;;;;16.41;82.24;94671.00;5110291;28;20191;-75
2022/09/15 02:38:11;;;;;;;21.83;7.95;;;;;;;16.37;82.16;94673.34;5110362;28;20200;-75
2022/09/15 02:40:42;;;;;;;21.58;9.05;;;;;;;16.39;82.04;94673.91;5110419;28;20179;-75
2022/09/15 02:43:14;;;;;;;19.50;8.38;;;;;;;16.17;82.37;94660.66;5111876;28;20600;-75
2022/09/15 02:45:40;;;;;;;17.98;9.45;;;;;;;16.16;82.90;94675.00;5114081;28;20589;-75
2022/09/15 02:48:08;;;;;;;17.15;8.70;;;;;;;16.26;82.94;94673.50;5113758;28;20177;-75
2022/09/15 02:50:33;;;;;;;16.63;7.93;;;;;;;16.14;82.07;94663.81;5095462;28;20611;-75
2022/09/15 02:52:59;;;;;;;19.35;9.13;;;;;;;16.17;82.44;94660.66;5113707;28;20216;-75
2022/09/15 02:55:27;;;;;;;15.63;8.27;;;;;;;16.17;82.78;94660.66;5113779;28;20165;-75
2022/09/15 02:57:54;;;;;;;15.45;6.80;;;;;;;16.26;82.59;94671.63;5113923;28;20623;-75
2022/09/15 03:00:19;;;;;;;18.65;7.63;;;;;;;16.22;81.45;94662.56;5113678;28;20169;-75
2022/09/15 03:02:50;;;;;;;15.43;6.75;;;;;;;16.19;81.90;94671.03;5105229;28;20181;-75
2022/09/15 03:05:18;;;;;;;16.17;7.63;;;;;;;16.21;82.24;94667.06;5107858;28;21123;-75
2022/09/15 03:07:44;;;;;;;23.30;6.88;;;;;;;16.16;82.20;94660.94;5079146;28;20620;-75
2022/09/15 03:10:10;;;;;;;12.55;6.80;;;;;;;16.19;82.24;94663.06;5113418;28;20165;-75
2022/09/15 03:12:48;;;;;;;16.55;7.10;;;;;;;16.25;82.13;94682.53;5113270;28;20188;-75
2022/09/15 03:15:16;;;;;;;21.15;6.65;;;;;;;16.23;82.09;94694.19;5113161;28;20278;-75
2022/09/15 03:17:43;;;;;;;13.38;6.53;;;;;;;16.07;81.96;94673.03;5112817;28;20169;-75
2022/09/15 03:20:10;;;;;;;14.05;6.88;;;;;;;16.06;81.83;94682.84;5112485;28;20711;-75
2022/09/15 03:22:37;;;;;;;17.10;7.40;;;;;;;16.18;82.41;94710.06;5112744;28;20233;-75
2022/09/15 03:25:06;;;;;;;16.02;6.72;;;;;;;16.12;81.85;94708.41;5092884;28;20223;-74
2022/09/15 03:27:32;;;;;;;12.05;6.05;;;;;;;15.99;82.26;94695.53;5092632;28;20182;-75
2022/09/15 03:29:58;;;;;;;14.02;6.78;;;;;;;15.92;82.53;94692.22;5101497;28;20247;-75
2022/09/15 03:32:23;;;;;;;12.07;6.40;;;;;;;16.04;82.66;94706.19;5111846;28;20209;-75
2022/09/15 03:34:49;;;;;;;15.27;6.22;;;;;;;15.98;82.16;94685.16;5093954;28;21046;-75
2022/09/15 03:37:15;;;;;;;19.42;7.20;;;;;;;16.03;82.25;94703.78;5094800;28;20177;-75
2022/09/15 03:39:40;;;;;;;18.27;6.85;;;;;;;16.04;82.27;94697.44;5112843;28;20161;-75
2022/09/15 03:42:06;;;;;;;12.57;7.03;;;;;;;15.95;82.58;94696.25;5102519;28;20256;-75
2022/09/15 03:44:31;;;;;;;11.93;6.53;;;;;;;15.92;82.58;94686.13;5092526;28;20178;-75
2022/09/15 03:46:57;;;;;;;20.45;7.43;;;;;;;16.01;82.85;94700.56;5079084;28;20655;-75
2022/09/15 03:49:23;;;;;;;16.35;7.13;;;;;;;16.02;82.38;94691.56;5092360;28;20248;-75
2022/09/15 03:51:49;;;;;;;17.70;7.20;;;;;;;16.01;82.32;94689.94;5080431;28;20200;-75
2022/09/15 03:54:15;;;;;;;16.52;7.63;;;;;;;16.00;82.29;94694.44;5100006;28;20619;-76
2022/09/15 03:56:40;;;;;;;14.65;7.65;;;;;;;15.99;82.51;94695.53;5098136;28;20166;-75
2022/09/15 03:59:06;;;;;;;22.15;7.70;;;;;;;16.01;82.79;94701.38;5098425;28;20584;-75
2022/09/15 04:01:31;;;;;;;18.83;6.28;;;;;;;15.92;82.78;94694.88;5100337;28;20197;-75
2022/09/15 04:03:57;;;;;;;10.63;6.72;;;;;;;15.88;82.92;94690.34;5106430;28;20184;-75
2022/09/15 04:06:24;;;;;;;19.27;7.32;;;;;;;15.88;83.23;94691.13;5101864;28;20256;-75
2022/09/15 04:08:51;;;;;;;16.40;6.68;;;;;;;15.84;83.08;94692.66;5106690;28;20240;-75
2022/09/15 04:11:18;;;;;;;13.75;7.03;;;;;;;15.74;83.29;94679.31;5100450;28;20194;-75
2022/09/15 04:13:44;;;;;;;20.27;7.35;;;;;;;15.79;83.30;94690.78;5094628;28;20211;-76
2022/09/15 04:16:13;;;;;;;20.05;7.10;;;;;;;15.82;83.04;94702.75;5095496;28;20221;-77
2022/09/15 04:18:39;;;;;;;17.98;8.05;;;;;;;15.74;83.45;94687.25;5094301;28;20196;-76
2022/09/15 04:21:07;;;;;;;24.98;7.47;;;;;;;15.77;83.43;94694.72;5102374;28;20632;-76
2022/09/15 04:23:34;;;;;;;14.20;7.25;;;;;;;15.76;83.74;94682.50;5112260;28;20188;-75
2022/09/15 04:26:02;;;;;;;17.60;7.40;;;;;;;15.79;83.64;94692.63;5111971;28;20173;-76
2022/09/15 04:28:30;;;;;;;19.08;8.45;;;;;;;15.72;83.73;94697.31;5101192;28;20174;-77
2022/09/15 04:31:03;;;;;;;17.73;7.35;;;;;;;15.71;84.02;94701.81;5091662;28;20286;-76
2022/09/15 04:33:29;;;;;;;17.70;7.80;;;;;;;15.83;84.07;94699.03;5111899;28;20172;-75
2022/09/15 04:36:00;;;;;;;18.38;8.10;;;;;;;15.97;83.61;94705.59;5111608;28;20175;-75
2022/09/15 04:38:26;;;;;;;19.63;8.50;;;;;;;16.05;83.05;94699.84;5103227;28;20681;-76
2022/09/15 04:40:51;;;;;;;22.00;9.05;;;;;;;16.09;82.67;94706.25;5111791;28;20185;-74
2022/09/15 04:43:17;;;;;;;22.10;8.55;;;;;;;16.24;82.84;94705.63;5108223;28;20180;-76
2022/09/15 04:45:42;;;;;;;20.50;7.45;;;;;;;16.28;82.40;94676.69;5092124;28;20174;-74
2022/09/15 04:48:08;;;;;;;22.67;7.65;;;;;;;16.56;81.69;94692.38;5091456;28;20256;-74
2022/09/15 04:50:33;;;;;;;24.65;7.35;;;;;;;16.63;81.25;94678.91;5090883;28;20622;-75
2022/09/15 04:52:59;;;;;;;25.63;8.80;;;;;;;16.89;80.49;94697.50;5090552;28;20212;-75
2022/09/15 04:55:25;;;;;;;23.45;8.18;;;;;;;16.97;78.76;94688.25;5110346;28;20173;-75
2022/09/15 04:57:50;;;;;;;26.95;8.07;;;;;;;17.13;78.11;94687.31;5105743;28;20166;-75
2022/09/15 05:00:16;;;;;;;23.00;10.43;;;;;;;17.49;77.31;94712.28;5091123;28;20174;-75
2022/09/15 05:02:42;;;;;;;28.52;7.90;;;;;;;17.66;76.16;94707.63;5091135;28;20674;-75
2022/09/15 05:05:07;;;;;;;30.20;7.60;;;;;;;17.94;75.30;94702.97;5090903;28;20170;-75
2022/09/15 05:07:33;;;;;;;35.88;7.95;;;;;;;18.22;73.74;94702.56;5091020;28;20258;-75
2022/09/15 05:09:58;;;;;;;28.10;7.75;;;;;;;18.99;73.37;94701.66;5096410;28;20173;-75
2022/09/15 05:12:23;;;;;;;23.90;7.32;;;;;;;20.03;69.40;94708.16;5111046;28;20284;-75
2022/09/15 05:14:49;;;;;;;17.17;6.72;;;;;;;20.98;65.41;94695.34;5111067;28;20319;-76
2022/09/15 05:17:14;;;;;;;24.20;8.48;;;;;;;21.86;62.49;94705.03;5111297;28;20177;-75
2022/09/15 05:19:40;;;;;;;30.63;7.15;;;;;;;22.47;60.52;94707.81;5111259;28;20177;-75
2022/09/15 05:22:05;;;;;;;20.33;7.85;;;;;;;23.28;57.48;94703.13;5111257;28;20256;-76
2022/09/15 05:24:30;;;;;;;22.88;7.07;;;;;;;23.77;55.37;94686.44;5111027;28;20190;-75
2022/09/15 05:26:56;;;;;;;14.80;6.50;;;;;;;24.55;53.68;94696.22;5111111;28;20196;-75
2022/09/15 05:29:21;;;;;;;26.33;6.93;;;;;;;25.21;52.33;94683.16;5111251;28;20181;-75
2022/09/15 05:31:47;;;;;;;25.65;6.95;;;;;;;25.80;51.58;94688.13;5110857;28;20221;-76
2022/09/15 05:34:12;;;;;;;24.90;6.82;;;;;;;26.50;49.12;94692.66;5100600;28;20207;-76
2022/09/15 05:36:37;;;;;;;23.33;6.75;;;;;;;27.16;47.61;94690.66;5094616;28;20707;-77
2022/09/15 05:39:03;;;;;;;17.70;5.13;;;;;;;27.74;44.52;94679.31;5099140;28;20177;-77
2022/09/15 05:41:29;;;;;;;13.23;5.00;;;;;;;28.30;42.68;94669.22;5106889;28;20173;-77
2022/09/15 05:43:56;;;;;;;18.60;6.03;;;;;;;28.88;43.62;94679.25;5111304;28;20173;-77
2022/09/15 05:46:24;;;;;;;11.98;4.93;;;;;;;29.35;40.89;94676.28;5111173;28;20181;-77
2022/09/15 05:48:53;;;;;;;15.40;6.43;;;;;;;29.86;40.80;94666.03;5076178;28;20185;-77
2022/09/15 05:51:19;;;;;;;16.40;6.35;;;;;;;30.61;39.95;94672.81;5090858;28;20668;-77
2022/09/15 05:53:44;;;;;;;14.68;7.20;;;;;;;31.18;37.05;94671.78;5090824;28;20537;-77
2022/09/15 05:56:12;;;;;;;12.38;5.32;;;;;;;31.17;36.66;94658.53;5090849;28;20185;-77
2022/09/15 05:58:39;;;;;;;23.85;12.25;;;;;;;31.68;36.23;94665.00;5104942;28;20177;-77
2022/09/15 06:01:16;;;;;;;17.83;8.00;;;;;;;32.25;34.50;94663.75;5102601;28;20173;-77
2022/09/15 06:03:42;;;;;;;14.35;6.15;;;;;;;32.73;34.08;94665.28;5105514;28;20712;-77
2022/09/15 06:06:08;;;;;;;14.15;5.07;;;;;;;33.30;33.16;94657.16;5108347;28;20174;-77
2022/09/15 06:08:40;;;;;;;17.05;4.78;;;;;;;33.53;30.86;94668.16;5107280;28;20170;-77
2022/09/15 06:11:11;;;;;;;15.25;6.45;;;;;;;33.82;31.48;94661.28;5080287;28;20560;-77
2022/09/15 06:13:37;;;;;;;6.95;3.55;;;;;;;34.21;30.18;94672.09;5111189;28;20591;-77
2022/09/15 06:16:23;;;;;;;10.30;3.63;;;;;;;34.91;29.40;94683.41;5092999;28;20620;-77
2022/09/15 06:18:50;;;;;;;14.60;4.72;;;;;;;34.96;28.22;94674.88;5113058;28;20199;-78
2022/09/15 06:21:19;;;;;;;24.90;8.15;;;;;;;35.36;28.01;94677.00;5097989;28;20629;-77
2022/09/15 06:23:44;;;;;;;12.70;6.57;;;;;;;35.42;28.07;94670.00;5095110;28;20197;-77
2022/09/15 06:26:11;;;;;;;7.47;4.05;;;;;;;35.66;27.07;94659.69;5101592;28;20215;-77
2022/09/15 06:28:38;;;;;;;13.02;5.72;;;;;;;35.82;27.46;94668.50;5096366;28;20180;-78
2022/09/15 06:31:08;;;;;;;14.20;9.38;;;;;;;35.67;27.41;94669.50;5100571;28;20206;-75
2022/09/15 06:33:33;;;;;;;20.65;7.38;;;;;;;35.56;28.20;94667.41;5093542;28;20170;-75
2022/09/15 06:36:01;;;;;;;14.77;6.55;;;;;;;35.02;28.81;94662.44;5098286;28;20282;-75
2022/09/15 06:38:26;;;;;;;10.98;4.97;;;;;;;34.81;29.02;94652.00;5103673;28;20230;-76
2022/09/15 06:40:58;;;;;;;14.30;6.40;;;;;;;34.33;28.90;94648.13;5093511;28;20186;-76
2022/09/15 06:43:25;;;;;;;10.98;5.53;;;;;;;32.79;31.20;94661.91;5093575;28;20282;-76
2022/09/15 06:45:51;;;;;;;11.32;5.30;;;;;;;32.51;33.21;94661.25;5093016;28;20656;-75
2022/09/15 06:48:17;;;;;;;8.32;4.55;;;;;;;32.56;31.72;94658.25;5093009;28;20197;-75
2022/09/15 06:50:43;;;;;;;16.05;5.70;;;;;;;32.48;33.16;94659.22;5092744;28;20284;-75
2022/09/15 06:53:09;;;;;;;11.38;5.43;;;;;;;32.47;32.43;94657.66;5093061;28;20273;-75
2022/09/15 06:55:34;;;;;;;11.30;5.13;;;;;;;32.43;32.56;94664.97;5108605;28;20180;-75
2022/09/15 06:57:59;;;;;;;13.88;5.10;;;;;;;32.32;32.36;94674.81;5113568;28;20187;-76
2022/09/15 07:00:25;;;;;;;16.80;6.10;;;;;;;32.19;32.78;94683.06;5114167;28;20226;-77
2022/09/15 07:02:50;;;;;;;13.32;5.28;;;;;;;31.91;32.97;94689.72;5114148;28;20543;-77
2022/09/15 07:05:16;;;;;;;13.68;5.13;;;;;;;31.67;33.60;94683.28;5097023;28;20640;-76
2022/09/15 07:07:42;;;;;;;6.97;5.03;;;;;;;31.60;35.03;94674.09;5098871;28;20192;-76
2022/09/15 07:10:08;;;;;;;11.85;4.40;;;;;;;31.41;34.56;94689.16;5093427;28;20178;-77
2022/09/15 07:12:33;;;;;;;21.40;13.23;;;;;;;31.18;35.34;94703.63;5098091;28;20208;-77
2022/09/15 07:14:58;;;;;;;13.70;4.82;;;;;;;30.97;34.97;94706.47;5105843;28;20287;-76
2022/09/15 07:17:25;;;;;;;8.95;4.57;;;;;;;30.84;36.30;94711.16;5092953;28;20178;-76
2022/09/15 07:19:51;;;;;;;11.40;4.22;;;;;;;30.57;36.10;94699.09;5093233;28;20170;-76
2022/09/15 07:22:16;;;;;;;13.18;5.43;;;;;;;30.33;35.96;94705.28;5111098;28;20646;-76
2022/09/15 07:24:41;;;;;;;11.30;4.30;;;;;;;30.08;37.08;94705.59;5095231;28;20193;-76
2022/09/15 07:27:07;;;;;;;10.15;3.58;;;;;;;30.18;37.21;94722.25;5113462;28;20183;-76
2022/09/15 07:29:33;;;;;;;11.52;3.92;;;;;;;30.27;37.17;94719.44;5113233;28;20191;-76
2022/09/15 07:31:59;;;;;;;10.27;3.58;;;;;;;30.36;37.24;94706.50;5106803;28;20656;-76
2022/09/15 07:34:24;;;;;;;12.65;4.10;;;;;;;30.36;37.08;94720.91;5093051;28;20196;-76
2022/09/15 07:36:49;;;;;;;9.73;4.18;;;;;;;30.37;36.61;94724.41;5093037;28;20252;-76
2022/09/15 07:39:15;;;;;;;10.25;3.67;;;;;;;30.35;37.60;94722.06;5092974;28;20675;-76
2022/09/15 07:41:40;;;;;;;11.15;3.42;;;;;;;30.31;36.24;94723.84;5096875;28;20177;-76
2022/09/15 07:44:07;;;;;;;13.98;3.83;;;;;;;30.19;36.62;94693.16;5113181;28;20181;-76
2022/09/15 07:46:32;;;;;;;9.63;2.92;;;;;;;30.06;34.76;94703.22;5112659;28;20254;-76
2022/09/15 07:48:59;;;;;;;10.60;3.78;;;;;;;29.90;36.58;94699.56;5112817;28;20648;-76
2022/09/15 07:51:25;;;;;;;8.75;3.65;;;;;;;30.05;36.34;94709.00;5112609;28;20707;-76
2022/09/15 07:53:52;;;;;;;7.97;2.97;;;;;;;29.96;37.56;94700.94;5112603;28;20184;-76
2022/09/15 07:56:18;;;;;;;7.78;3.63;;;;;;;30.02;36.86;94710.44;5100571;28;20186;-76
2022/09/15 07:58:45;;;;;;;7.70;2.70;;;;;;;30.02;36.43;94705.81;5092600;28;20184;-77
2022/09/15 08:01:11;;;;;;;7.63;3.30;;;;;;;29.84;36.13;94690.81;5092813;28;20836;-76
2022/09/15 08:03:47;;;;;;;7.00;2.88;;;;;;;29.83;35.28;94699.31;5092827;28;20644;-77
2022/09/15 08:06:14;;;;;;;5.43;3.00;;;;;;;29.73;35.37;94700.53;5092418;28;20239;-77
2022/09/15 08:08:42;;;;;;;7.25;2.90;;;;;;;29.52;36.33;94697.84;5097683;28;20230;-77
2022/09/15 08:11:10;;;;;;;12.68;3.63;;;;;;;29.60;37.60;94682.63;5111707;28;20203;-77
2022/09/15 08:13:36;;;;;;;8.82;3.72;;;;;;;29.67;37.54;94706.50;5106090;28;20181;-77
2022/09/15 08:16:11;;;;;;;13.63;3.65;;;;;;;29.49;36.36;94701.22;5084763;28;20555;-78
2022/09/15 08:18:38;;;;;;;7.60;3.33;;;;;;;29.14;37.36;94687.19;5099833;28;20177;-78
2022/09/15 08:21:08;;;;;;;11.30;3.38;;;;;;;29.29;37.13;94691.19;5094430;28;20562;-77
2022/09/15 08:23:35;;;;;;;5.75;2.83;;;;;;;29.16;36.30;94684.13;5093163;28;20178;-78
2022/09/15 08:26:00;;;;;;;6.28;3.15;;;;;;;29.05;36.91;94670.19;5100346;28;20270;-78
2022/09/15 08:28:26;;;;;;;9.35;2.95;;;;;;;28.89;38.10;94667.25;5098293;28;20248;-76
2022/09/15 08:31:04;;;;;;;4.13;2.45;;;;;;;28.59;37.87;94667.63;5102417;28;20672;-79
2022/09/15 08:33:29;;;;;;;12.30;2.90;;;;;;;28.42;38.60;94673.94;5081733;28;20216;-81
2022/09/15 08:36:00;;;;;;;9.85;2.92;;;;;;;28.73;38.32;94660.81;5098032;28;20204;-79
2022/09/15 08:38:26;;;;;;;13.50;2.80;;;;;;;28.63;39.27;94661.22;5099129;28;20165;-80
2022/09/15 08:40:59;;;;;;;14.02;3.53;;;;;;;28.63;38.56;94658.50;5103666;28;20153;-80
2022/09/15 08:43:28;;;;;;;7.60;3.63;;;;;;;28.86;37.36;94659.03;5104633;28;20169;-79
2022/09/15 08:46:03;;;;;;;12.57;3.17;;;;;;;28.94;38.67;94660.88;5100562;28;20170;-78
2022/09/15 08:48:44;;;;;;;10.40;3.20;;;;;;;29.11;39.11;94671.56;5098137;28;20402;-77
2022/09/15 08:51:20;;;;;;;9.52;3.15;;;;;;;29.42;37.49;94660.28;5093326;28;20250;-80
2022/09/15 08:53:53;;;;;;;7.35;3.42;;;;;;;29.43;36.33;94656.44;5105432;28;20586;-78
2022/09/15 08:56:19;;;;;;;15.15;3.97;;;;;;;29.15;36.84;94636.44;5110087;28;20169;-80
2022/09/15 08:58:45;;;;;;;13.95;3.45;;;;;;;29.14;36.86;94640.28;5098919;28;20173;-79
2022/09/15 09:01:21;;;;;;;7.95;3.55;;;;;;;28.98;37.24;94644.72;5111946;28;20177;-77
2022/09/15 09:03:56;;;;;;;11.05;3.05;;;;;;;28.79;38.08;94637.06;5109529;28;20549;-77
2022/09/15 09:06:34;;;;;;;16.92;3.67;;;;;;;28.87;38.96;94630.78;5101251;28;20222;-78
2022/09/15 09:09:11;;;;;;;17.63;3.72;;;;;;;28.95;38.08;94624.50;5098793;28;20220;-77
2022/09/15 09:12:14;;;;;;;10.85;4.03;;;;;;;29.07;37.34;94624.53;5099294;28;20184;-77
2022/09/15 09:14:58;;;;;;;15.48;3.90;;;;;;;28.94;37.30;94628.34;5105237;28;20220;-77
2022/09/15 09:17:47;;;;;;;13.43;3.67;;;;;;;29.05;39.04;94615.97;5097135;28;20173;-77
2022/09/15 09:20:21;;;;;;;9.70;3.75;;;;;;;29.13;38.23;94612.38;5093422;28;20166;-77
2022/09/15 09:22:51;;;;;;;16.77;4.65;;;;;;;29.13;37.77;94614.28;5096924;28;20164;-77
2022/09/15 09:25:19;;;;;;;9.02;4.18;;;;;;;28.79;37.91;94618.91;5094036;28;20219;-77
2022/09/15 09:27:46;;;;;;;11.82;3.67;;;;;;;28.83;38.35;94608.16;5094312;28;20196;-74
2022/09/15 09:30:20;;;;;;;10.23;3.70;;;;;;;28.75;39.13;94598.97;5099464;28;20176;-79
2022/09/15 09:33:07;;;;;;;16.42;3.28;;;;;;;28.76;38.82;94594.34;5103141;28;20169;-77
2022/09/15 09:35:40;;;;;;;7.25;3.78;;;;;;;28.80;38.86;94574.38;5094817;28;20248;-78
2022/09/15 09:38:14;;;;;;;10.10;3.42;;;;;;;28.85;38.85;94592.38;5096632;28;20252;-77
2022/09/15 09:40:40;;;;;;;8.10;3.35;;;;;;;28.93;38.88;94599.63;5100778;28;20169;-77
2022/09/15 09:43:06;;;;;;;10.05;3.20;;;;;;;28.96;38.74;94603.59;5092873;28;20532;-79
2022/09/15 09:45:32;;;;;;;9.75;3.10;;;;;;;28.87;39.20;94599.06;5105533;28;20551;-79
2022/09/15 09:48:10;;;;;;;12.90;3.88;;;;;;;28.83;41.35;94592.69;5101140;28;20173;-77
2022/09/15 09:50:42;;;;;;;6.45;3.50;;;;;;;28.99;38.21;94608.34;5090650;28;20335;-78
2022/09/15 09:53:35;;;;;;;5.57;3.13;;;;;;;28.66;38.39;94560.31;5106349;28;20176;-77
2022/09/15 09:56:15;;;;;;;10.10;3.85;;;;;;;28.94;38.89;94600.44;5111229;28;20181;-77
2022/09/15 09:58:41;;;;;;;14.85;3.88;;;;;;;28.82;39.77;94582.19;5088724;28;20535;-78
2022/09/15 10:01:13;;;;;;;10.35;3.80;;;;;;;28.69;38.96;94584.03;5103741;28;20201;-78
2022/09/15 10:03:40;;;;;;;7.30;3.47;;;;;;;28.81;39.24;94592.22;5098539;28;20166;-76
2022/09/15 10:06:17;;;;;;;8.75;3.95;;;;;;;28.81;40.13;94583.31;5094847;28;20174;-77
2022/09/15 10:08:54;;;;;;;10.75;3.65;;;;;;;28.92;39.47;94595.34;5102764;28;20184;-78
2022/09/15 10:11:21;;;;;;;10.23;3.45;;;;;;;28.86;39.29;94583.91;5084238;28;20205;-80
2022/09/15 10:13:53;;;;;;;8.70;3.38;;;;;;;28.78;38.97;94557.69;5095376;28;20186;-80
2022/09/15 10:16:21;;;;;;;10.43;3.28;;;;;;;28.89;38.61;94566.16;5108094;28;20224;-79
2022/09/15 10:18:49;;;;;;;8.38;3.15;;;;;;;28.86;38.90;94564.94;5095375;28;20169;-80
2022/09/15 10:21:20;;;;;;;9.77;3.45;;;;;;;29.14;38.18;94577.91;5106513;28;20176;-79
2022/09/15 10:23:46;;;;;;;8.65;3.00;;;;;;;29.18;37.48;94573.41;5085447;28;20643;-79
2022/09/15 10:26:19;;;;;;;10.18;3.38;;;;;;;29.34;37.82;94568.91;5103917;28;20193;-80
2022/09/15 10:29:09;;;;;;;9.60;2.88;;;;;;;29.48;39.78;94568.63;5108349;28;20796;-79
2022/09/15 10:31:34;;;;;;;9.43;3.22;;;;;;;29.61;37.64;94562.09;5111661;28;20201;-79
2022/09/15 10:34:23;;;;;;;9.77;3.15;;;;;;;29.72;37.35;94567.88;5103466;28;20747;-79
2022/09/15 10:36:53;;;;;;;10.05;2.67;;;;;;;29.78;35.07;94564.59;5107780;28;20180;-78
2022/09/15 10:39:36;;;;;;;11.00;3.33;;;;;;;29.86;35.91;94558.25;5102920;28;20230;-78
2022/09/15 10:42:20;;;;;;;14.50;4.38;;;;;;;30.00;36.91;94568.81;5089568;28;20541;-78
2022/09/15 10:45:14;;;;;;;7.65;3.88;;;;;;;30.15;36.24;94562.69;5102061;28;20318;-79
2022/09/15 10:48:18;;;;;;;12.15;3.08;;;;;;;30.28;35.34;94561.50;5063341;28;20714;-79
2022/09/15 10:50:59;;;;;;;9.57;3.08;;;;;;;30.33;35.06;94550.41;5096213;28;20212;-78
2022/09/15 10:53:24;;;;;;;6.13;3.00;;;;;;;30.43;35.27;94545.66;5099830;28;20166;-79
2022/09/15 10:56:24;;;;;;;9.43;3.28;;;;;;;30.50;34.51;94545.84;5098580;28;20173;-78
2022/09/15 10:59:01;;;;;;;15.60;3.40;;;;;;;30.67;34.34;94543.66;5097226;28;20166;-79
2022/09/15 11:01:27;;;;;;;10.95;3.90;;;;;;;30.73;33.43;94547.72;5101559;28;20172;-78
2022/09/15 11:04:27;;;;;;;12.10;3.10;;;;;;;30.71;33.03;94551.91;5097111;28;20177;-78
2022/09/15 11:07:18;;;;;;;7.03;2.28;;;;;;;30.67;33.51;94540.16;5098096;28;20172;-79
2022/09/15 11:09:56;;;;;;;11.40;2.65;;;;;;;30.48;33.73;94513.56;5103744;28;20701;-79
2022/09/15 11:12:34;;;;;;;7.97;2.15;;;;;;;30.49;33.81;94527.97;5083712;28;20203;-79
2022/09/15 11:15:26;;;;;;;11.80;2.55;;;;;;;30.39;33.10;94518.34;5095160;28;20270;-79
2022/09/15 11:18:28;;;;;;;6.22;3.58;;;;;;;30.37;35.46;94520.63;5086936;28;20858;-78
2022/09/15 11:21:14;;;;;;;8.73;2.47;;;;;;;30.41;35.55;94518.81;5108616;28;20173;-77
2022/09/15 11:23:54;;;;;;;15.73;3.80;;;;;;;30.47;36.01;94514.72;5107310;28;20208;-75
2022/09/15 11:26:34;;;;;;;10.20;2.90;;;;;;;30.52;36.55;94516.44;5093722;28;20178;-76
2022/09/15 11:29:19;;;;;;;14.57;2.80;;;;;;;30.55;35.68;94494.78;5102166;28;20636;-77
2022/09/15 11:31:50;;;;;;;5.88;2.25;;;;;;;30.77;34.38;94501.59;5105635;28;20184;-77
2022/09/15 11:34:42;;;;;;;12.77;3.15;;;;;;;31.01;35.93;94501.47;5097046;28;20166;-77
2022/09/15 11:37:33;;;;;;;6.78;2.70;;;;;;;31.34;34.02;94511.28;5105822;28;20165;-77
2022/09/15 11:40:12;;;;;;;11.13;2.25;;;;;;;31.47;32.90;94504.63;5105701;28;20237;-77